sensor_id;sensor_type;location;lat;lon;timestamp;pressure;altitude;pressure_sealevel;temperature;humidity
70254;BME280;57649;42.968;1.608;2023-01-15T00:01:03;97206.47;;;5.85;69.21
70254;BME280;57649;42.968;1.608;2023-01-15T00:03:29;97212.19;;;6.00;67.66
70254;BME280;57649;42.968;1.608;2023-01-15T00:05:55;97210.09;;;6.04;67.67
70254;BME280;57649;42.968;1.608;2023-01-15T00:08:21;97209.22;;;5.93;68.49
70254;BME280;57649;42.968;1.608;2023-01-15T00:10:46;97187.44;;;5.80;67.84
70254;BME280;57649;42.968;1.608;2023-01-15T00:13:12;97197.53;;;5.86;68.12
70254;BME280;57649;42.968;1.608;2023-01-15T00:15:40;97191.38;;;5.76;68.02
70254;BME280;57649;42.968;1.608;2023-01-15T00:18:05;97187.63;;;5.69;69.42
70254;BME280;57649;42.968;1.608;2023-01-15T00:20:30;97183.84;;;5.71;69.15
70254;BME280;57649;42.968;1.608;2023-01-15T00:22:56;97188.59;;;5.77;68.01
70254;BME280;57649;42.968;1.608;2023-01-15T00:25:21;97180.50;;;5.59;69.29
70254;BME280;57649;42.968;1.608;2023-01-15T00:28:06;97188.19;;;5.53;70.31
70254;BME280;57649;42.968;1.608;2023-01-15T00:30:31;97185.53;;;5.53;70.38
70254;BME280;57649;42.968;1.608;2023-01-15T00:32:57;97184.31;;;5.57;69.88
70254;BME280;57649;42.968;1.608;2023-01-15T00:35:23;97184.16;;;5.49;70.96
70254;BME280;57649;42.968;1.608;2023-01-15T00:37:49;97183.47;;;5.47;70.34
70254;BME280;57649;42.968;1.608;2023-01-15T00:40:17;97174.81;;;5.45;70.73
70254;BME280;57649;42.968;1.608;2023-01-15T00:42:42;97164.59;;;5.40;70.99
70254;BME280;57649;42.968;1.608;2023-01-15T00:45:09;97160.41;;;5.47;69.69
70254;BME280;57649;42.968;1.608;2023-01-15T00:47:39;97154.53;;;5.53;69.72
70254;BME280;57649;42.968;1.608;2023-01-15T00:50:07;97146.44;;;5.45;69.83
70254;BME280;57649;42.968;1.608;2023-01-15T00:52:33;97153.16;;;5.39;70.41
70254;BME280;57649;42.968;1.608;2023-01-15T00:54:58;97151.91;;;5.34;69.75
70254;BME280;57649;42.968;1.608;2023-01-15T00:57:24;97150.34;;;5.41;69.83
70254;BME280;57649;42.968;1.608;2023-01-15T00:59:49;97150.63;;;5.38;70.67
70254;BME280;57649;42.968;1.608;2023-01-15T01:02:15;97153.13;;;5.49;68.88
70254;BME280;57649;42.968;1.608;2023-01-15T01:04:40;97155.66;;;5.61;68.43
70254;BME280;57649;42.968;1.608;2023-01-15T01:07:05;97148.06;;;5.66;67.29
70254;BME280;57649;42.968;1.608;2023-01-15T01:09:31;97151.03;;;5.63;67.25
70254;BME280;57649;42.968;1.608;2023-01-15T01:11:56;97160.69;;;5.54;68.76
70254;BME280;57649;42.968;1.608;2023-01-15T01:14:22;97167.25;;;5.50;69.63
70254;BME280;57649;42.968;1.608;2023-01-15T01:16:48;97158.75;;;5.46;68.93
70254;BME280;57649;42.968;1.608;2023-01-15T01:19:19;97148.69;;;5.50;68.58
70254;BME280;57649;42.968;1.608;2023-01-15T01:21:45;97150.88;;;5.54;68.09
70254;BME280;57649;42.968;1.608;2023-01-15T01:24:13;97140.94;;;5.56;68.14
70254;BME280;57649;42.968;1.608;2023-01-15T01:26:39;97134.00;;;5.55;68.82
70254;BME280;57649;42.968;1.608;2023-01-15T01:29:04;97141.53;;;5.50;69.39
70254;BME280;57649;42.968;1.608;2023-01-15T01:31:30;97131.34;;;5.46;69.03
70254;BME280;57649;42.968;1.608;2023-01-15T01:33:57;97126.75;;;5.48;69.43
70254;BME280;57649;42.968;1.608;2023-01-15T01:36:29;97124.91;;;5.48;69.15
70254;BME280;57649;42.968;1.608;2023-01-15T01:38:55;97125.78;;;5.39;68.65
70254;BME280;57649;42.968;1.608;2023-01-15T01:41:21;97126.59;;;5.39;68.83
70254;BME280;57649;42.968;1.608;2023-01-15T01:44:57;97134.47;;;5.31;69.72
70254;BME280;57649;42.968;1.608;2023-01-15T01:46:52;97131.38;;;5.26;69.88
70254;BME280;57649;42.968;1.608;2023-01-15T01:49:18;97146.88;;;5.31;69.77
70254;BME280;57649;42.968;1.608;2023-01-15T01:51:47;97152.91;;;5.13;70.72
70254;BME280;57649;42.968;1.608;2023-01-15T01:54:17;97148.69;;;5.01;71.99
70254;BME280;57649;42.968;1.608;2023-01-15T01:56:47;97154.56;;;4.85;72.18
70254;BME280;57649;42.968;1.608;2023-01-15T01:59:14;97151.34;;;4.81;72.96
70254;BME280;57649;42.968;1.608;2023-01-15T02:01:40;97157.91;;;4.77;73.37
70254;BME280;57649;42.968;1.608;2023-01-15T02:04:08;97166.56;;;4.79;72.37
70254;BME280;57649;42.968;1.608;2023-01-15T02:06:35;97163.78;;;5.20;68.91
70254;BME280;57649;42.968;1.608;2023-01-15T02:09:02;97169.63;;;5.24;70.41
70254;BME280;57649;42.968;1.608;2023-01-15T02:11:28;97176.19;;;5.00;71.89
70254;BME280;57649;42.968;1.608;2023-01-15T02:14:03;97176.06;;;5.01;70.82
70254;BME280;57649;42.968;1.608;2023-01-15T02:16:44;97180.06;;;4.67;73.13
70254;BME280;57649;42.968;1.608;2023-01-15T02:21:50;97172.00;;;4.78;71.95
70254;BME280;57649;42.968;1.608;2023-01-15T02:24:48;97169.06;;;4.91;72.51
70254;BME280;57649;42.968;1.608;2023-01-15T02:27:19;97181.50;;;5.00;71.49
70254;BME280;57649;42.968;1.608;2023-01-15T02:32:48;97178.84;;;4.90;72.48
70254;BME280;57649;42.968;1.608;2023-01-15T02:35:37;97185.97;;;4.99;71.57
70254;BME280;57649;42.968;1.608;2023-01-15T02:38:08;97175.09;;;4.93;72.82
70254;BME280;57649;42.968;1.608;2023-01-15T02:40:36;97168.25;;;4.80;73.34
70254;BME280;57649;42.968;1.608;2023-01-15T02:43:04;97178.41;;;4.75;74.00
70254;BME280;57649;42.968;1.608;2023-01-15T02:45:34;97188.59;;;4.70;74.65
70254;BME280;57649;42.968;1.608;2023-01-15T02:48:25;97176.84;;;4.63;74.33
70254;BME280;57649;42.968;1.608;2023-01-15T02:51:01;97172.81;;;4.59;75.57
70254;BME280;57649;42.968;1.608;2023-01-15T02:53:29;97168.06;;;4.53;75.19
70254;BME280;57649;42.968;1.608;2023-01-15T02:55:58;97165.69;;;4.59;74.09
70254;BME280;57649;42.968;1.608;2023-01-15T02:58:29;97162.06;;;4.51;75.40
70254;BME280;57649;42.968;1.608;2023-01-15T03:00:57;97169.00;;;4.42;76.57
70254;BME280;57649;42.968;1.608;2023-01-15T03:09:03;97159.34;;;4.41;75.47
70254;BME280;57649;42.968;1.608;2023-01-15T03:11:31;97146.09;;;4.31;75.88
70254;BME280;57649;42.968;1.608;2023-01-15T03:17:08;97144.16;;;4.43;75.08
70254;BME280;57649;42.968;1.608;2023-01-15T03:25:08;97138.19;;;4.51;74.19
70254;BME280;57649;42.968;1.608;2023-01-15T03:27:36;97139.84;;;4.52;73.81
70254;BME280;57649;42.968;1.608;2023-01-15T03:30:06;97138.34;;;4.59;74.23
70254;BME280;57649;42.968;1.608;2023-01-15T03:32:32;97148.81;;;4.60;73.94
70254;BME280;57649;42.968;1.608;2023-01-15T03:34:58;97150.31;;;4.53;74.58
70254;BME280;57649;42.968;1.608;2023-01-15T03:37:25;97134.69;;;4.40;75.79
70254;BME280;57649;42.968;1.608;2023-01-15T03:39:52;97128.50;;;4.30;75.84
70254;BME280;57649;42.968;1.608;2023-01-15T03:53:26;97119.97;;;4.17;75.74
70254;BME280;57649;42.968;1.608;2023-01-15T03:56:04;97124.16;;;4.19;76.08
70254;BME280;57649;42.968;1.608;2023-01-15T03:58:40;97114.84;;;4.25;74.93
70254;BME280;57649;42.968;1.608;2023-01-15T04:01:10;97114.84;;;4.25;74.54
70254;BME280;57649;42.968;1.608;2023-01-15T04:03:36;97113.72;;;4.28;74.75
70254;BME280;57649;42.968;1.608;2023-01-15T04:06:03;97107.31;;;4.30;74.61
70254;BME280;57649;42.968;1.608;2023-01-15T04:08:32;97110.66;;;4.32;74.28
70254;BME280;57649;42.968;1.608;2023-01-15T04:11:00;97112.31;;;4.23;75.03
70254;BME280;57649;42.968;1.608;2023-01-15T04:13:27;97108.81;;;4.23;75.27
70254;BME280;57649;42.968;1.608;2023-01-15T04:15:53;97107.47;;;4.38;74.50
70254;BME280;57649;42.968;1.608;2023-01-15T04:18:19;97096.44;;;4.43;73.19
70254;BME280;57649;42.968;1.608;2023-01-15T04:20:45;97092.53;;;4.37;73.63
70254;BME280;57649;42.968;1.608;2023-01-15T04:23:11;97091.72;;;4.47;73.43
70254;BME280;57649;42.968;1.608;2023-01-15T04:25:36;97094.91;;;4.40;73.21
70254;BME280;57649;42.968;1.608;2023-01-15T04:28:02;97085.28;;;4.39;73.51
70254;BME280;57649;42.968;1.608;2023-01-15T04:30:28;97072.84;;;4.30;73.57
70254;BME280;57649;42.968;1.608;2023-01-15T04:32:53;97083.06;;;4.35;73.35
70254;BME280;57649;42.968;1.608;2023-01-15T04:35:19;97096.88;;;4.38;73.12
70254;BME280;57649;42.968;1.608;2023-01-15T04:37:45;97100.47;;;4.28;74.60
70254;BME280;57649;42.968;1.608;2023-01-15T04:40:11;97107.22;;;4.01;75.99
70254;BME280;57649;42.968;1.608;2023-01-15T04:42:56;97116.66;;;3.94;76.84
70254;BME280;57649;42.968;1.608;2023-01-15T04:45:40;97108.88;;;3.92;76.29
70254;BME280;57649;42.968;1.608;2023-01-15T04:48:07;97111.13;;;3.97;75.97
70254;BME280;57649;42.968;1.608;2023-01-15T04:50:32;97120.47;;;4.01;75.77
70254;BME280;57649;42.968;1.608;2023-01-15T04:52:57;97115.00;;;3.93;76.79
70254;BME280;57649;42.968;1.608;2023-01-15T04:55:23;97124.69;;;4.03;76.06
70254;BME280;57649;42.968;1.608;2023-01-15T04:57:49;97133.31;;;4.05;76.12
70254;BME280;57649;42.968;1.608;2023-01-15T05:00:15;97141.59;;;4.22;74.73
70254;BME280;57649;42.968;1.608;2023-01-15T05:02:40;97134.75;;;4.19;75.41
70254;BME280;57649;42.968;1.608;2023-01-15T05:05:06;97144.88;;;4.04;76.57
70254;BME280;57649;42.968;1.608;2023-01-15T05:07:31;97144.31;;;4.01;76.84
70254;BME280;57649;42.968;1.608;2023-01-15T05:09:57;97151.84;;;3.96;76.37
70254;BME280;57649;42.968;1.608;2023-01-15T05:12:22;97155.06;;;3.99;76.60
70254;BME280;57649;42.968;1.608;2023-01-15T05:14:48;97158.91;;;3.95;77.02
70254;BME280;57649;42.968;1.608;2023-01-15T05:17:13;97177.47;;;3.95;77.29
70254;BME280;57649;42.968;1.608;2023-01-15T05:19:39;97183.41;;;3.88;78.03
70254;BME280;57649;42.968;1.608;2023-01-15T05:22:04;97175.22;;;3.70;79.61
70254;BME280;57649;42.968;1.608;2023-01-15T05:24:30;97178.09;;;3.78;79.29
70254;BME280;57649;42.968;1.608;2023-01-15T05:26:55;97187.38;;;3.72;79.43
70254;BME280;57649;42.968;1.608;2023-01-15T05:29:22;97200.34;;;3.75;79.41
70254;BME280;57649;42.968;1.608;2023-01-15T05:31:48;97202.56;;;3.70;80.46
70254;BME280;57649;42.968;1.608;2023-01-15T05:34:13;97208.94;;;3.67;80.30
70254;BME280;57649;42.968;1.608;2023-01-15T05:36:39;97210.06;;;3.65;79.97
70254;BME280;57649;42.968;1.608;2023-01-15T05:39:05;97210.56;;;3.59;79.54
70254;BME280;57649;42.968;1.608;2023-01-15T05:41:31;97216.63;;;3.71;77.63
70254;BME280;57649;42.968;1.608;2023-01-15T05:44:26;97215.81;;;3.70;78.88
70254;BME280;57649;42.968;1.608;2023-01-15T05:46:58;97215.25;;;3.55;79.59
70254;BME280;57649;42.968;1.608;2023-01-15T05:49:25;97221.22;;;3.69;79.55
70254;BME280;57649;42.968;1.608;2023-01-15T05:51:52;97235.31;;;3.48;79.81
70254;BME280;57649;42.968;1.608;2023-01-15T05:54:24;97235.31;;;3.37;80.35
70254;BME280;57649;42.968;1.608;2023-01-15T05:56:50;97259.28;;;3.35;80.98
70254;BME280;57649;42.968;1.608;2023-01-15T05:59:18;97263.84;;;3.33;80.97
70254;BME280;57649;42.968;1.608;2023-01-15T06:01:44;97292.34;;;3.41;81.25
70254;BME280;57649;42.968;1.608;2023-01-15T06:04:11;97312.50;;;3.53;80.39
70254;BME280;57649;42.968;1.608;2023-01-15T06:06:41;97328.94;;;3.36;80.10
70254;BME280;57649;42.968;1.608;2023-01-15T06:09:07;97335.88;;;3.37;80.83
70254;BME280;57649;42.968;1.608;2023-01-15T06:11:32;97334.22;;;3.36;80.31
70254;BME280;57649;42.968;1.608;2023-01-15T06:13:58;97349.00;;;3.38;80.45
70254;BME280;57649;42.968;1.608;2023-01-15T06:16:24;97362.75;;;3.21;80.35
70254;BME280;57649;42.968;1.608;2023-01-15T06:18:50;97367.34;;;2.96;81.64
70254;BME280;57649;42.968;1.608;2023-01-15T06:21:16;97376.34;;;3.16;79.62
70254;BME280;57649;42.968;1.608;2023-01-15T06:23:42;97372.81;;;3.38;78.32
70254;BME280;57649;42.968;1.608;2023-01-15T06:26:14;97380.19;;;3.67;76.81
70254;BME280;57649;42.968;1.608;2023-01-15T06:28:41;97380.97;;;3.90;75.48
70254;BME280;57649;42.968;1.608;2023-01-15T06:31:11;97385.75;;;3.96;74.61
70254;BME280;57649;42.968;1.608;2023-01-15T06:33:37;97389.88;;;3.89;76.21
70254;BME280;57649;42.968;1.608;2023-01-15T06:36:05;97395.66;;;3.51;78.60
70254;BME280;57649;42.968;1.608;2023-01-15T06:38:31;97401.19;;;3.47;79.51
70254;BME280;57649;42.968;1.608;2023-01-15T06:41:00;97393.66;;;3.32;80.28
70254;BME280;57649;42.968;1.608;2023-01-15T06:43:26;97395.97;;;3.02;82.05
70254;BME280;57649;42.968;1.608;2023-01-15T06:46:11;97407.38;;;3.03;82.06
70254;BME280;57649;42.968;1.608;2023-01-15T06:48:55;97402.31;;;3.11;82.58
70254;BME280;57649;42.968;1.608;2023-01-15T06:51:20;97408.81;;;3.18;82.12
70254;BME280;57649;42.968;1.608;2023-01-15T06:53:46;97407.63;;;3.22;82.91
70254;BME280;57649;42.968;1.608;2023-01-15T06:56:13;97407.34;;;3.25;82.20
70254;BME280;57649;42.968;1.608;2023-01-15T06:58:40;97406.38;;;3.38;81.88
70254;BME280;57649;42.968;1.608;2023-01-15T07:01:10;97420.41;;;3.50;81.47
70254;BME280;57649;42.968;1.608;2023-01-15T07:03:36;97424.38;;;3.55;81.71
70254;BME280;57649;42.968;1.608;2023-01-15T07:06:10;97421.72;;;3.66;81.06
70254;BME280;57649;42.968;1.608;2023-01-15T07:08:36;97441.44;;;3.74;80.92
70254;BME280;57649;42.968;1.608;2023-01-15T07:11:03;97445.53;;;3.78;80.79
70254;BME280;57649;42.968;1.608;2023-01-15T07:13:29;97441.19;;;3.77;80.87
70254;BME280;57649;42.968;1.608;2023-01-15T07:15:57;97444.22;;;3.72;81.69
70254;BME280;57649;42.968;1.608;2023-01-15T07:18:23;97448.06;;;3.79;81.69
70254;BME280;57649;42.968;1.608;2023-01-15T07:20:48;97453.66;;;3.86;81.12
70254;BME280;57649;42.968;1.608;2023-01-15T07:23:14;97445.84;;;3.96;80.04
70254;BME280;57649;42.968;1.608;2023-01-15T07:25:39;97450.63;;;4.02;79.01
70254;BME280;57649;42.968;1.608;2023-01-15T07:28:04;97448.56;;;4.05;78.66
70254;BME280;57649;42.968;1.608;2023-01-15T07:30:30;97456.97;;;4.11;78.92
70254;BME280;57649;42.968;1.608;2023-01-15T07:32:55;97465.03;;;4.09;79.14
70254;BME280;57649;42.968;1.608;2023-01-15T07:35:21;97465.41;;;4.04;80.21
70254;BME280;57649;42.968;1.608;2023-01-15T07:37:50;97460.50;;;4.00;79.86
70254;BME280;57649;42.968;1.608;2023-01-15T07:40:16;97471.88;;;4.12;80.98
70254;BME280;57649;42.968;1.608;2023-01-15T07:42:42;97477.94;;;4.02;82.32
70254;BME280;57649;42.968;1.608;2023-01-15T07:45:26;97489.75;;;3.98;84.50
70254;BME280;57649;42.968;1.608;2023-01-15T07:48:27;97499.25;;;4.01;84.65
70254;BME280;57649;42.968;1.608;2023-01-15T07:51:11;97513.38;;;4.01;86.77
70254;BME280;57649;42.968;1.608;2023-01-15T07:53:37;97524.66;;;4.03;87.73
70254;BME280;57649;42.968;1.608;2023-01-15T07:56:02;97541.25;;;4.17;89.12
70254;BME280;57649;42.968;1.608;2023-01-15T07:58:28;97559.09;;;4.15;92.55
70254;BME280;57649;42.968;1.608;2023-01-15T08:00:53;97568.78;;;4.37;99.73
70254;BME280;57649;42.968;1.608;2023-01-15T08:03:19;97595.25;;;4.80;100.00
70254;BME280;57649;42.968;1.608;2023-01-15T08:05:44;97592.94;;;5.29;100.00
70254;BME280;57649;42.968;1.608;2023-01-15T08:08:16;97613.16;;;5.72;100.00
70254;BME280;57649;42.968;1.608;2023-01-15T08:10:43;97617.19;;;5.67;100.00
70254;BME280;57649;42.968;1.608;2023-01-15T08:13:27;97635.91;;;5.86;100.00
70254;BME280;57649;42.968;1.608;2023-01-15T08:16:11;97647.88;;;6.02;100.00
70254;BME280;57649;42.968;1.608;2023-01-15T08:18:37;97656.91;;;6.20;100.00
70254;BME280;57649;42.968;1.608;2023-01-15T08:21:02;97678.81;;;6.43;100.00
70254;BME280;57649;42.968;1.608;2023-01-15T08:23:28;97689.47;;;6.53;100.00
70254;BME280;57649;42.968;1.608;2023-01-15T08:25:53;97700.66;;;6.47;100.00
70254;BME280;57649;42.968;1.608;2023-01-15T08:28:19;97690.41;;;6.42;100.00
70254;BME280;57649;42.968;1.608;2023-01-15T08:30:44;97692.34;;;6.30;100.00
70254;BME280;57649;42.968;1.608;2023-01-15T08:33:09;97714.25;;;6.23;100.00
70254;BME280;57649;42.968;1.608;2023-01-15T08:35:35;97703.63;;;6.23;100.00
70254;BME280;57649;42.968;1.608;2023-01-15T08:38:07;97700.69;;;6.16;100.00
70254;BME280;57649;42.968;1.608;2023-01-15T08:40:34;97704.31;;;6.15;100.00
70254;BME280;57649;42.968;1.608;2023-01-15T08:43:01;97707.25;;;6.12;100.00
70254;BME280;57649;42.968;1.608;2023-01-15T08:45:26;97712.28;;;6.15;100.00
70254;BME280;57649;42.968;1.608;2023-01-15T08:47:55;97710.47;;;6.15;100.00
70254;BME280;57649;42.968;1.608;2023-01-15T08:50:24;97721.50;;;6.11;100.00
70254;BME280;57649;42.968;1.608;2023-01-15T08:52:49;97726.81;;;6.11;100.00
70254;BME280;57649;42.968;1.608;2023-01-15T08:55:15;97723.69;;;6.06;100.00
70254;BME280;57649;42.968;1.608;2023-01-15T08:57:40;97717.59;;;6.15;100.00
70254;BME280;57649;42.968;1.608;2023-01-15T09:00:06;97726.00;;;6.20;100.00
70254;BME280;57649;42.968;1.608;2023-01-15T09:02:32;97724.19;;;6.21;100.00
70254;BME280;57649;42.968;1.608;2023-01-15T09:04:57;97718.03;;;6.20;100.00
70254;BME280;57649;42.968;1.608;2023-01-15T09:07:23;97727.44;;;6.24;100.00
70254;BME280;57649;42.968;1.608;2023-01-15T09:09:48;97721.53;;;6.21;100.00
70254;BME280;57649;42.968;1.608;2023-01-15T09:12:14;97721.50;;;6.11;100.00
70254;BME280;57649;42.968;1.608;2023-01-15T09:14:39;97714.22;;;6.13;100.00
70254;BME280;57649;42.968;1.608;2023-01-15T09:17:05;97713.53;;;6.11;100.00
70254;BME280;57649;42.968;1.608;2023-01-15T09:19:30;97713.78;;;6.08;100.00
70254;BME280;57649;42.968;1.608;2023-01-15T09:21:55;97708.63;;;6.06;100.00
70254;BME280;57649;42.968;1.608;2023-01-15T09:24:21;97720.09;;;6.07;100.00
70254;BME280;57649;42.968;1.608;2023-01-15T09:26:46;97711.00;;;6.09;100.00
70254;BME280;57649;42.968;1.608;2023-01-15T09:29:12;97713.13;;;6.15;100.00
70254;BME280;57649;42.968;1.608;2023-01-15T09:31:37;97715.34;;;6.10;100.00
70254;BME280;57649;42.968;1.608;2023-01-15T09:34:03;97718.38;;;6.06;100.00
70254;BME280;57649;42.968;1.608;2023-01-15T09:36:31;97724.69;;;6.05;100.00
70254;BME280;57649;42.968;1.608;2023-01-15T09:38:58;97726.78;;;6.01;100.00
70254;BME280;57649;42.968;1.608;2023-01-15T09:41:27;97737.97;;;6.05;100.00
70254;BME280;57649;42.968;1.608;2023-01-15T09:44:29;97732.22;;;6.00;100.00
70254;BME280;57649;42.968;1.608;2023-01-15T09:47:17;97737.28;;;6.03;100.00
70254;BME280;57649;42.968;1.608;2023-01-15T09:52:30;97757.16;;;6.08;100.00
70254;BME280;57649;42.968;1.608;2023-01-15T09:57:53;97762.78;;;5.94;100.00
70254;BME280;57649;42.968;1.608;2023-01-15T10:00:22;97768.94;;;5.94;100.00
70254;BME280;57649;42.968;1.608;2023-01-15T10:05:26;97768.88;;;6.06;100.00
70254;BME280;57649;42.968;1.608;2023-01-15T10:10:30;97769.59;;;6.29;100.00
70254;BME280;57649;42.968;1.608;2023-01-15T10:13:05;97759.06;;;6.27;100.00
70254;BME280;57649;42.968;1.608;2023-01-15T10:15:44;97755.13;;;6.22;100.00
70254;BME280;57649;42.968;1.608;2023-01-15T10:18:18;97762.00;;;6.24;100.00
70254;BME280;57649;42.968;1.608;2023-01-15T10:25:58;97753.84;;;6.16;100.00
70254;BME280;57649;42.968;1.608;2023-01-15T10:28:58;97755.78;;;6.14;100.00
70254;BME280;57649;42.968;1.608;2023-01-15T10:32:43;97763.19;;;6.10;100.00
70254;BME280;57649;42.968;1.608;2023-01-15T10:37:41;97755.34;;;6.09;100.00
70254;BME280;57649;42.968;1.608;2023-01-15T10:40:36;97741.94;;;6.10;100.00
70254;BME280;57649;42.968;1.608;2023-01-15T10:45:58;97764.34;;;5.96;100.00
70254;BME280;57649;42.968;1.608;2023-01-15T10:48:44;97763.13;;;6.01;100.00
70254;BME280;57649;42.968;1.608;2023-01-15T10:51:19;97758.69;;;5.90;100.00
70254;BME280;57649;42.968;1.608;2023-01-15T10:59:12;97752.94;;;5.85;100.00
70254;BME280;57649;42.968;1.608;2023-01-15T11:01:40;97747.81;;;5.72;100.00
70254;BME280;57649;42.968;1.608;2023-01-15T11:04:08;97745.22;;;5.61;100.00
70254;BME280;57649;42.968;1.608;2023-01-15T11:06:34;97731.94;;;5.61;100.00
70254;BME280;57649;42.968;1.608;2023-01-15T11:08:59;97732.44;;;5.54;100.00
70254;BME280;57649;42.968;1.608;2023-01-15T11:14:38;97735.59;;;5.69;100.00
70254;BME280;57649;42.968;1.608;2023-01-15T11:20:45;97728.22;;;5.73;100.00
70254;BME280;57649;42.968;1.608;2023-01-15T11:23:21;97712.63;;;5.79;100.00
70254;BME280;57649;42.968;1.608;2023-01-15T11:25:58;97707.88;;;5.83;100.00
70254;BME280;57649;42.968;1.608;2023-01-15T11:28:35;97706.97;;;5.73;100.00
70254;BME280;57649;42.968;1.608;2023-01-15T11:31:07;97697.22;;;5.73;100.00
70254;BME280;57649;42.968;1.608;2023-01-15T11:33:34;97706.19;;;5.82;100.00
70254;BME280;57649;42.968;1.608;2023-01-15T11:36:03;97701.88;;;5.81;100.00
70254;BME280;57649;42.968;1.608;2023-01-15T11:38:42;97706.09;;;5.93;100.00
70254;BME280;57649;42.968;1.608;2023-01-15T11:41:28;97700.63;;;5.85;100.00
70254;BME280;57649;42.968;1.608;2023-01-15T11:44:14;97700.28;;;5.78;100.00
70254;BME280;57649;42.968;1.608;2023-01-15T11:46:59;97686.72;;;5.72;100.00
70254;BME280;57649;42.968;1.608;2023-01-15T11:49:53;97689.53;;;5.80;100.00
70254;BME280;57649;42.968;1.608;2023-01-15T11:52:41;97687.91;;;5.89;100.00
70254;BME280;57649;42.968;1.608;2023-01-15T11:55:15;97677.16;;;5.90;100.00
70254;BME280;57649;42.968;1.608;2023-01-15T11:57:41;97679.81;;;5.90;100.00
70254;BME280;57649;42.968;1.608;2023-01-15T12:02:48;97664.66;;;5.81;100.00
70254;BME280;57649;42.968;1.608;2023-01-15T12:05:18;97663.69;;;5.82;100.00
70254;BME280;57649;42.968;1.608;2023-01-15T12:07:45;97661.31;;;5.79;100.00
70254;BME280;57649;42.968;1.608;2023-01-15T12:10:30;97665.91;;;5.77;100.00
70254;BME280;57649;42.968;1.608;2023-01-15T12:32:21;97632.88;;;5.49;100.00
70254;BME280;57649;42.968;1.608;2023-01-15T12:34:56;97622.72;;;5.54;100.00
70254;BME280;57649;42.968;1.608;2023-01-15T12:37:36;97627.50;;;5.60;100.00
70254;BME280;57649;42.968;1.608;2023-01-15T12:42:41;97614.91;;;5.62;100.00
70254;BME280;57649;42.968;1.608;2023-01-15T12:45:31;97601.03;;;5.49;100.00
70254;BME280;57649;42.968;1.608;2023-01-15T12:50:48;97608.53;;;5.65;100.00
70254;BME280;57649;42.968;1.608;2023-01-15T12:59:03;97598.84;;;5.64;100.00
70254;BME280;57649;42.968;1.608;2023-01-15T13:04:47;97591.44;;;5.57;100.00
70254;BME280;57649;42.968;1.608;2023-01-15T13:09:48;97592.75;;;5.73;100.00
70254;BME280;57649;42.968;1.608;2023-01-15T13:12:17;97591.88;;;5.63;100.00
70254;BME280;57649;42.968;1.608;2023-01-15T13:14:42;97581.41;;;5.71;100.00
70254;BME280;57649;42.968;1.608;2023-01-15T13:20:26;97589.03;;;5.85;100.00
70254;BME280;57649;42.968;1.608;2023-01-15T13:25:31;97576.72;;;5.84;96.64
70254;BME280;57649;42.968;1.608;2023-01-15T13:33:36;97578.59;;;5.63;100.00
70254;BME280;57649;42.968;1.608;2023-01-15T13:38:44;97578.38;;;5.75;100.00
70254;BME280;57649;42.968;1.608;2023-01-15T13:41:18;97580.00;;;5.67;100.00
70254;BME280;57649;42.968;1.608;2023-01-15T13:44:04;97590.63;;;5.67;100.00
70254;BME280;57649;42.968;1.608;2023-01-15T13:46:30;97610.34;;;5.43;100.00
70254;BME280;57649;42.968;1.608;2023-01-15T13:48:56;97621.81;;;5.01;99.29
70254;BME280;57649;42.968;1.608;2023-01-15T13:51:28;97597.56;;;4.74;100.00
70254;BME280;57649;42.968;1.608;2023-01-15T13:53:56;97601.84;;;4.54;99.07
70254;BME280;57649;42.968;1.608;2023-01-15T13:56:29;97587.06;;;4.51;99.86
70254;BME280;57649;42.968;1.608;2023-01-15T13:59:03;97592.22;;;4.53;100.00
70254;BME280;57649;42.968;1.608;2023-01-15T14:04:06;97580.31;;;4.47;100.00
70254;BME280;57649;42.968;1.608;2023-01-15T14:06:48;97584.34;;;4.62;100.00
70254;BME280;57649;42.968;1.608;2023-01-15T14:09:26;97576.03;;;4.67;100.00
70254;BME280;57649;42.968;1.608;2023-01-15T14:15:15;97580.59;;;4.97;100.00
70254;BME280;57649;42.968;1.608;2023-01-15T14:23:38;97614.75;;;5.12;100.00
70254;BME280;57649;42.968;1.608;2023-01-15T14:29:03;97602.50;;;4.99;100.00
70254;BME280;57649;42.968;1.608;2023-01-15T14:31:48;97598.25;;;5.08;97.68
70254;BME280;57649;42.968;1.608;2023-01-15T14:34:26;97587.31;;;5.23;100.00
70254;BME280;57649;42.968;1.608;2023-01-15T14:37:38;97593.13;;;5.16;98.46
70254;BME280;57649;42.968;1.608;2023-01-15T14:40:04;97597.84;;;5.13;97.43
70254;BME280;57649;42.968;1.608;2023-01-15T14:42:33;97595.19;;;5.13;97.10
70254;BME280;57649;42.968;1.608;2023-01-15T14:45:28;97595.66;;;5.18;100.00
70254;BME280;57649;42.968;1.608;2023-01-15T14:47:59;97591.94;;;5.20;100.00
70254;BME280;57649;42.968;1.608;2023-01-15T14:50:36;97607.13;;;5.18;95.58
70254;BME280;57649;42.968;1.608;2023-01-15T15:01:59;97612.28;;;5.20;100.00
70254;BME280;57649;42.968;1.608;2023-01-15T15:04:35;97616.97;;;5.28;100.00
70254;BME280;57649;42.968;1.608;2023-01-15T15:07:19;97606.22;;;5.29;97.14
70254;BME280;57649;42.968;1.608;2023-01-15T15:09:55;97605.66;;;5.26;93.57
70254;BME280;57649;42.968;1.608;2023-01-15T15:26:33;97596.44;;;5.30;93.03
70254;BME280;57649;42.968;1.608;2023-01-15T15:29:00;97598.19;;;5.19;92.63
70254;BME280;57649;42.968;1.608;2023-01-15T15:31:27;97596.69;;;5.27;91.34
70254;BME280;57649;42.968;1.608;2023-01-15T15:33:55;97592.09;;;5.29;89.44
70254;BME280;57649;42.968;1.608;2023-01-15T15:36:24;97584.59;;;5.34;89.40
70254;BME280;57649;42.968;1.608;2023-01-15T15:39:01;97591.19;;;5.39;88.38
70254;BME280;57649;42.968;1.608;2023-01-15T15:41:34;97576.41;;;5.47;89.84
70254;BME280;57649;42.968;1.608;2023-01-15T15:44:37;97575.13;;;5.41;89.58
70254;BME280;57649;42.968;1.608;2023-01-15T15:47:24;97568.91;;;5.52;88.39
70254;BME280;57649;42.968;1.608;2023-01-15T15:50:26;97586.91;;;5.48;93.91
70254;BME280;57649;42.968;1.608;2023-01-15T15:52:53;97578.16;;;5.57;89.81
70254;BME280;57649;42.968;1.608;2023-01-15T15:55:20;97570.44;;;5.54;95.46
70254;BME280;57649;42.968;1.608;2023-01-15T15:57:50;97578.94;;;5.48;89.48
70254;BME280;57649;42.968;1.608;2023-01-15T16:00:26;97572.66;;;5.49;90.49